createdAt,value
2018-11-12T00:00:16.122Z,25.37
2018-11-12T00:02:46.341Z,23.70
2018-11-12T00:05:13.765Z,22.83
2018-11-12T00:07:41.130Z,25.08
2018-11-12T00:10:10.439Z,30.23
2018-11-12T00:12:41.271Z,23.77
2018-11-12T00:15:10.835Z,24.43
2018-11-12T00:17:41.348Z,26.05
2018-11-12T00:20:11.620Z,27.80
2018-11-12T00:22:40.378Z,25.53
2018-11-12T00:25:09.671Z,28.65
2018-11-12T00:27:39.805Z,22.73
2018-11-12T00:30:13.375Z,27.50
2018-11-12T00:32:42.775Z,24.80
2018-11-12T00:37:46.221Z,24.23
2018-11-12T00:40:14.522Z,21.25
2018-11-12T00:42:42.582Z,23.23
2018-11-12T00:45:11.349Z,26.33
2018-11-12T00:47:40.106Z,24.03
2018-11-12T00:50:09.425Z,25.10
2018-11-12T00:52:39.382Z,23.73
2018-11-12T00:55:09.091Z,22.73
2018-11-12T00:57:36.674Z,22.80
2018-11-12T01:00:05.194Z,23.95
2018-11-12T01:02:35.421Z,21.25
2018-11-12T01:05:02.961Z,23.67
2018-11-12T01:07:31.854Z,22.27
2018-11-12T01:10:01.992Z,24.65
2018-11-12T01:12:30.748Z,28.15
2018-11-12T01:14:59.299Z,24.27
2018-11-12T01:17:28.012Z,23.73
2018-11-12T01:19:55.120Z,25.90
2018-11-12T01:22:25.811Z,23.30
2018-11-12T01:24:55.783Z,26.00
2018-11-12T01:27:25.203Z,26.70
2018-11-12T01:29:52.971Z,22.75
2018-11-12T01:32:21.315Z,21.03
2018-11-12T01:34:48.450Z,26.77
2018-11-12T01:37:17.209Z,24.47
2018-11-12T01:39:44.302Z,26.20
2018-11-12T01:42:13.521Z,29.18
2018-11-12T01:44:43.397Z,28.93
2018-11-12T01:47:10.560Z,25.50
2018-11-12T01:49:41.780Z,29.30
2018-11-12T01:52:09.690Z,31.05
2018-11-12T01:54:37.384Z,25.70
2018-11-12T01:57:04.581Z,25.02
2018-11-12T01:59:37.265Z,26.03
2018-11-12T02:02:07.354Z,25.77
2018-11-12T02:04:34.880Z,25.93
2018-11-12T02:07:03.071Z,28.23
2018-11-12T02:09:32.184Z,25.00
2018-11-12T02:12:00.054Z,26.63
2018-11-12T02:14:28.392Z,28.70
2018-11-12T02:16:55.813Z,24.90
2018-11-12T02:19:23.002Z,26.50
2018-11-12T02:21:52.362Z,26.00
2018-11-12T02:24:20.320Z,31.20
2018-11-12T02:26:47.427Z,29.97
2018-11-12T02:29:15.219Z,29.87
2018-11-12T02:31:43.968Z,29.40
2018-11-12T02:34:11.194Z,30.03
2018-11-12T02:36:38.271Z,31.00
2018-11-12T02:39:08.465Z,27.97
2018-11-12T02:41:35.564Z,33.07
2018-11-12T02:44:06.230Z,31.00
2018-11-12T02:46:35.674Z,33.80
2018-11-12T02:49:03.918Z,29.60
2018-11-12T02:51:33.358Z,27.90
2018-11-12T02:54:00.632Z,31.30
2018-11-12T02:56:31.521Z,28.60
2018-11-12T02:58:59.656Z,29.47
2018-11-12T03:01:26.794Z,28.50
2018-11-12T03:03:54.087Z,30.97
2018-11-12T03:06:21.401Z,27.67
2018-11-12T03:08:48.923Z,25.23
2018-11-12T03:11:16.077Z,28.87
2018-11-12T03:13:43.478Z,27.82
2018-11-12T03:16:10.940Z,27.17
2018-11-12T03:18:40.839Z,28.05
2018-11-12T03:21:09.031Z,29.30
2018-11-12T03:23:37.489Z,25.23
2018-11-12T03:26:05.775Z,25.85
2018-11-12T03:28:33.594Z,29.13
2018-11-12T03:31:01.528Z,26.47
2018-11-12T03:33:29.220Z,25.43
2018-11-12T03:35:56.614Z,22.73
2018-11-12T03:38:25.272Z,25.00
2018-11-12T03:40:53.188Z,25.03
2018-11-12T03:43:22.527Z,24.37
2018-11-12T03:45:50.502Z,26.33
2018-11-12T03:48:18.587Z,25.10
2018-11-12T03:50:47.224Z,26.37
2018-11-12T03:53:18.819Z,24.93
2018-11-12T03:55:46.624Z,25.33
2018-11-12T03:58:13.786Z,26.13
2018-11-12T04:00:41.021Z,22.40
2018-11-12T04:03:08.952Z,28.60
2018-11-12T04:05:36.773Z,24.03
2018-11-12T04:08:04.487Z,26.97
2018-11-12T04:10:33.071Z,23.30
2018-11-12T04:13:02.165Z,26.23
2018-11-12T04:15:30.268Z,25.40
2018-11-12T04:17:58.471Z,24.07
2018-11-12T04:20:27.126Z,24.37
2018-11-12T04:23:02.650Z,21.37
2018-11-12T04:25:30.839Z,20.43
2018-11-12T04:27:58.033Z,21.50
2018-11-12T04:30:25.890Z,22.13
2018-11-12T04:32:54.036Z,20.97
2018-11-12T04:35:21.180Z,23.53
2018-11-12T04:37:50.717Z,22.17
2018-11-12T04:40:19.070Z,24.02
2018-11-12T04:42:50.251Z,25.60
2018-11-12T04:45:19.511Z,20.20
2018-11-12T04:47:47.408Z,21.07
2018-11-12T04:50:17.131Z,22.63
2018-11-12T04:52:46.372Z,20.47
2018-11-12T04:55:15.684Z,21.00
2018-11-12T04:57:44.463Z,19.77
2018-11-12T05:00:15.578Z,19.83
2018-11-12T05:02:45.695Z,21.43
2018-11-12T05:05:15.917Z,19.73
2018-11-12T05:07:44.992Z,17.97
2018-11-12T05:10:14.153Z,22.42
2018-11-12T05:12:43.361Z,20.63
2018-11-12T05:15:15.879Z,16.33
2018-11-12T05:17:44.621Z,15.57
2018-11-12T05:20:17.063Z,21.43
2018-11-12T05:22:47.618Z,17.37
2018-11-12T05:25:15.912Z,19.40
2018-11-12T05:27:44.858Z,17.77
2018-11-12T05:30:29.650Z,22.77
2018-11-12T05:32:58.706Z,21.82
2018-11-12T05:35:28.424Z,18.87
2018-11-12T05:37:58.804Z,18.67
2018-11-12T05:40:27.681Z,21.03
2018-11-12T05:42:56.254Z,22.10
2018-11-12T05:45:25.790Z,21.57
2018-11-12T05:47:53.656Z,21.03
2018-11-12T05:50:23.074Z,18.40
2018-11-12T05:52:54.290Z,21.17
2018-11-12T05:55:23.084Z,20.10
2018-11-12T05:57:51.790Z,28.75
2018-11-12T06:00:29.948Z,33.70
2018-11-12T06:02:57.162Z,36.07
2018-11-12T06:05:24.322Z,34.25
2018-11-12T06:07:51.562Z,34.63
2018-11-12T06:10:20.045Z,33.27
2018-11-12T06:12:47.528Z,34.95
2018-11-12T06:15:14.981Z,36.47
2018-11-12T06:17:43.448Z,31.87
2018-11-12T06:20:16.808Z,38.10
2018-11-12T06:22:44.296Z,42.77
2018-11-12T06:25:12.681Z,41.87
2018-11-12T06:27:39.819Z,37.20
2018-11-12T06:30:13.264Z,32.97
2018-11-12T06:32:40.446Z,42.70
2018-11-12T06:35:08.940Z,40.37
2018-11-12T06:37:36.383Z,42.40
2018-11-12T06:40:04.695Z,38.80
2018-11-12T06:42:32.191Z,31.40
2018-11-12T06:44:59.272Z,25.80
2018-11-12T06:47:27.175Z,28.37
2018-11-12T06:49:54.551Z,31.15
2018-11-12T06:52:21.943Z,26.68
2018-11-12T06:54:49.146Z,40.57
2018-11-12T06:57:16.367Z,35.43
2018-11-12T06:59:43.577Z,26.07
2018-11-12T07:02:10.798Z,30.80
2018-11-12T07:04:38.709Z,27.33
2018-11-12T07:07:06.175Z,26.37
2018-11-12T07:09:33.458Z,30.10
2018-11-12T07:12:01.268Z,32.23
2018-11-12T07:14:28.394Z,34.10
2018-11-12T07:16:55.616Z,37.20
2018-11-12T07:19:23.107Z,36.33
2018-11-12T07:21:50.338Z,36.17
2018-11-12T07:24:17.545Z,35.97
2018-11-12T07:26:44.772Z,30.43
2018-11-12T07:29:12.019Z,34.07
2018-11-12T07:31:39.336Z,31.10
2018-11-12T07:34:06.579Z,32.23
2018-11-12T07:36:33.748Z,29.25
2018-11-12T07:39:01.222Z,28.90
2018-11-12T07:41:28.536Z,31.20
2018-11-12T07:43:55.857Z,29.87
2018-11-12T07:46:23.027Z,27.02
2018-11-12T07:48:50.377Z,28.27
2018-11-12T07:51:17.686Z,31.20
2018-11-12T07:53:44.894Z,31.75
2018-11-12T07:56:12.167Z,32.95
2018-11-12T07:58:39.359Z,28.67
2018-11-12T08:01:06.630Z,27.40
2018-11-12T08:03:34.042Z,30.17
2018-11-12T08:06:04.758Z,26.52
2018-11-12T08:08:32.151Z,26.62
2018-11-12T08:10:59.959Z,28.25
2018-11-12T08:13:27.109Z,27.20
2018-11-12T08:15:54.436Z,28.98
2018-11-12T08:18:21.994Z,30.03
2018-11-12T08:20:50.193Z,27.85
2018-11-12T08:23:17.514Z,33.53
2018-11-12T08:25:44.689Z,26.70
2018-11-12T08:28:11.839Z,26.93
2018-11-12T08:30:39.145Z,24.75
2018-11-12T08:33:06.806Z,32.43
2018-11-12T08:35:34.288Z,27.65
2018-11-12T08:38:01.534Z,29.65
2018-11-12T08:40:29.417Z,28.07
2018-11-12T08:42:56.468Z,25.63
2018-11-12T08:45:23.728Z,26.27
2018-11-12T08:47:52.229Z,32.67
2018-11-12T08:50:21.116Z,29.67
2018-11-12T08:52:50.437Z,30.50
2018-11-12T08:55:23.776Z,33.47
2018-11-12T08:57:52.740Z,27.00
2018-11-12T09:00:21.139Z,27.93
2018-11-12T09:02:51.738Z,27.90
2018-11-12T09:05:24.093Z,26.42
2018-11-12T09:07:54.016Z,30.77
2018-11-12T09:10:23.726Z,26.30
2018-11-12T09:12:51.534Z,27.50
2018-11-12T09:15:19.264Z,31.70
2018-11-12T09:17:49.570Z,30.75
2018-11-12T09:20:21.622Z,30.62
2018-11-12T09:22:49.357Z,26.50
2018-11-12T09:25:18.545Z,30.50
2018-11-12T09:27:48.063Z,26.07
2018-11-12T09:30:22.260Z,29.95
2018-11-12T09:32:50.233Z,28.67
2018-11-12T09:35:19.613Z,25.07
2018-11-12T09:37:48.493Z,27.05
2018-11-12T09:40:21.277Z,28.12
2018-11-12T09:42:49.481Z,27.50
2018-11-12T09:45:16.658Z,26.02
2018-11-12T09:47:44.203Z,23.90
2018-11-12T09:50:14.080Z,25.62
2018-11-12T09:52:42.700Z,25.65
2018-11-12T09:55:10.624Z,24.82
2018-11-12T09:57:39.805Z,23.15
2018-11-12T10:00:09.750Z,24.15
2018-11-12T10:02:38.277Z,20.82
2018-11-12T10:05:07.150Z,25.77
2018-11-12T10:07:34.434Z,25.10
2018-11-12T10:10:01.472Z,21.70
2018-11-12T10:12:29.177Z,17.67
2018-11-12T10:14:56.643Z,20.80
2018-11-12T10:17:25.410Z,19.55
2018-11-12T10:19:56.652Z,20.15
2018-11-12T10:22:23.812Z,24.05
2018-11-12T10:24:51.064Z,21.73
2018-11-12T10:27:19.257Z,25.70
2018-11-12T10:29:46.908Z,25.20
2018-11-12T10:32:14.055Z,24.60
2018-11-12T10:34:41.745Z,21.60
2018-11-12T10:37:08.866Z,22.73
2018-11-12T10:39:35.963Z,24.75
2018-11-12T10:42:03.278Z,23.32
2018-11-12T10:44:30.425Z,21.35
2018-11-12T10:46:59.991Z,28.75
2018-11-12T10:49:27.123Z,26.90
2018-11-12T10:51:56.238Z,25.75
2018-11-12T10:54:23.967Z,31.07
2018-11-12T10:56:50.908Z,24.45
2018-11-12T10:59:18.019Z,25.60
2018-11-12T11:01:50.941Z,21.40
2018-11-12T11:04:20.297Z,26.25
2018-11-12T11:06:47.614Z,28.65
2018-11-12T11:09:14.728Z,20.48
2018-11-12T11:11:41.886Z,21.93
2018-11-12T11:14:09.004Z,29.75
2018-11-12T11:16:37.087Z,28.80
2018-11-12T11:19:04.636Z,22.93
2018-11-12T11:21:32.484Z,23.77
2018-11-12T11:23:59.659Z,25.60
2018-11-12T11:26:27.304Z,23.98
2018-11-12T11:28:54.762Z,21.68
2018-11-12T11:31:21.946Z,23.47
2018-11-12T11:33:49.041Z,22.67
2018-11-12T11:36:16.163Z,25.57
2018-11-12T11:38:43.294Z,25.55
2018-11-12T11:41:10.420Z,26.70
2018-11-12T11:43:37.547Z,24.15
2018-11-12T11:46:05.349Z,26.35
2018-11-12T11:48:32.527Z,25.10
2018-11-12T11:50:59.890Z,30.57
2018-11-12T11:53:27.003Z,25.97
2018-11-12T11:55:54.160Z,23.22
2018-11-12T11:58:21.804Z,24.52
2018-11-12T12:00:48.903Z,22.17
2018-11-12T12:03:16.508Z,28.52
2018-11-12T12:05:43.639Z,28.70
2018-11-12T12:08:10.742Z,29.27
2018-11-12T12:10:37.849Z,27.32
2018-11-12T12:13:04.974Z,27.32
2018-11-12T12:15:32.135Z,22.10
2018-11-12T12:17:59.250Z,27.73
2018-11-12T12:20:26.854Z,26.17
2018-11-12T12:23:56.994Z,26.42
2018-11-12T12:26:24.143Z,27.05
2018-11-12T12:28:51.268Z,25.37
2018-11-12T12:31:18.364Z,25.15
2018-11-12T12:33:46.383Z,23.62
2018-11-12T12:36:13.557Z,23.35
2018-11-12T12:38:41.357Z,26.37
2018-11-12T12:41:08.425Z,23.27
2018-11-12T12:43:35.753Z,29.25
2018-11-12T12:46:02.954Z,32.00
2018-11-12T12:48:30.691Z,30.68
2018-11-12T12:50:57.943Z,22.22
2018-11-12T12:53:26.416Z,28.10
2018-11-12T12:55:53.731Z,25.82
2018-11-12T12:58:20.802Z,27.75
2018-11-12T13:00:47.851Z,24.90
2018-11-12T13:03:15.412Z,33.70
2018-11-12T13:05:42.535Z,30.15
2018-11-12T13:08:09.621Z,27.67
2018-11-12T13:10:36.771Z,34.00
2018-11-12T13:13:03.978Z,27.22
2018-11-12T13:15:31.152Z,34.65
2018-11-12T13:17:58.305Z,29.92
2018-11-12T13:20:25.499Z,28.00
2018-11-12T13:22:52.687Z,32.63
2018-11-12T13:25:20.054Z,26.65
2018-11-12T13:27:53.834Z,24.98
2018-11-12T13:30:22.175Z,26.10
2018-11-12T13:32:49.435Z,30.70
2018-11-12T13:35:19.835Z,25.45
2018-11-12T13:37:46.944Z,26.37
2018-11-12T13:40:18.595Z,25.00
2018-11-12T13:42:47.507Z,28.38
2018-11-12T13:45:14.677Z,28.15
2018-11-12T13:47:43.050Z,24.18
2018-11-12T13:50:16.811Z,27.37
2018-11-12T13:52:44.036Z,26.12
2018-11-12T13:55:13.264Z,27.42
2018-11-12T13:57:40.433Z,25.97
2018-11-12T14:00:09.319Z,23.80
2018-11-12T14:02:36.529Z,22.95
2018-11-12T14:05:04.919Z,21.50
2018-11-12T14:07:32.629Z,23.98
2018-11-12T14:09:59.783Z,25.40
2018-11-12T14:12:26.887Z,24.90
2018-11-12T14:14:54.245Z,21.35
2018-11-12T14:17:21.366Z,22.35
2018-11-12T14:19:48.453Z,27.02
2018-11-12T14:22:15.581Z,25.82
2018-11-12T14:24:42.740Z,46.77
2018-11-12T14:27:10.209Z,37.88
2018-11-12T14:29:37.347Z,32.42
2018-11-12T14:32:04.894Z,40.55
2018-11-12T14:34:31.981Z,39.80
2018-11-12T14:36:59.108Z,31.45
2018-11-12T14:39:26.300Z,28.40
2018-11-12T14:41:53.398Z,30.82
2018-11-12T14:44:20.507Z,30.50
2018-11-12T14:46:48.196Z,25.55
2018-11-12T14:49:15.338Z,24.87
2018-11-12T14:51:42.453Z,26.27
2018-11-12T14:54:09.596Z,25.37
2018-11-12T14:56:36.697Z,24.63
2018-11-12T14:59:04.019Z,22.95
2018-11-12T15:01:31.161Z,23.27
2018-11-12T15:03:58.285Z,25.55
2018-11-12T15:06:25.424Z,26.85
2018-11-12T15:08:53.748Z,24.35
2018-11-12T15:11:21.012Z,27.35
2018-11-12T15:13:48.639Z,34.30
2018-11-12T15:16:15.719Z,28.12
2018-11-12T15:18:42.814Z,28.40
2018-11-12T15:21:10.030Z,25.88
2018-11-12T15:23:37.027Z,29.35
2018-11-12T15:26:04.774Z,30.85
2018-11-12T15:28:31.886Z,38.55
2018-11-12T15:30:59.161Z,32.58
2018-11-12T15:33:26.254Z,33.25
2018-11-12T15:35:54.009Z,27.20
2018-11-12T15:38:21.228Z,31.35
2018-11-12T15:40:49.081Z,28.57
2018-11-12T15:43:16.535Z,28.42
2018-11-12T15:45:43.736Z,28.30
2018-11-12T15:48:11.403Z,29.50
2018-11-12T15:50:39.388Z,31.68
2018-11-12T15:53:06.682Z,28.12
2018-11-12T15:55:33.937Z,24.18
2018-11-12T15:58:01.237Z,29.18
2018-11-12T16:00:28.506Z,30.30
2018-11-12T16:02:56.110Z,26.40
2018-11-12T16:05:24.099Z,28.57
2018-11-12T16:07:51.331Z,25.20
2018-11-12T16:10:21.200Z,25.60
2018-11-12T16:12:50.094Z,25.90
2018-11-12T16:15:18.429Z,25.27
2018-11-12T16:17:47.515Z,24.85
2018-11-12T16:20:17.201Z,26.35
2018-11-12T16:22:45.788Z,23.65
2018-11-12T16:30:29.991Z,28.73
2018-11-12T16:32:57.551Z,35.15
2018-11-12T16:35:25.102Z,23.70
2018-11-12T16:37:53.249Z,21.20
2018-11-12T16:40:21.259Z,24.18
2018-11-12T16:42:49.829Z,25.17
2018-11-12T16:45:17.619Z,26.33
2018-11-12T16:47:45.221Z,25.35
2018-11-12T16:50:13.361Z,22.73
2018-11-12T16:52:41.452Z,22.35
2018-11-12T16:55:13.253Z,21.73
2018-11-12T16:57:41.407Z,22.80
2018-11-12T17:00:10.423Z,23.60
2018-11-12T17:02:39.479Z,23.40
2018-11-12T17:05:07.798Z,22.15
2018-11-12T17:07:36.708Z,20.40
2018-11-12T17:10:07.839Z,20.32
2018-11-12T17:12:40.223Z,19.60
2018-11-12T17:15:08.649Z,19.25
2018-11-12T17:17:38.780Z,18.32
2018-11-12T17:20:08.059Z,22.97
2018-11-12T17:22:37.127Z,19.42
2018-11-12T17:25:11.553Z,23.60
2018-11-12T17:27:43.447Z,20.37
2018-11-12T17:30:13.745Z,18.82
2018-11-12T17:32:42.042Z,22.10
2018-11-12T17:35:12.297Z,19.48
2018-11-12T17:37:43.207Z,20.90
2018-11-12T17:40:20.152Z,28.57
2018-11-12T17:42:49.654Z,26.00
2018-11-12T17:45:19.140Z,22.67
2018-11-12T17:47:52.988Z,19.15
2018-11-12T17:50:23.551Z,19.85
2018-11-12T17:52:51.381Z,18.07
2018-11-12T17:55:21.343Z,18.62
2018-11-12T18:00:31.413Z,22.27
2018-11-12T18:02:58.629Z,19.70
2018-11-12T18:05:25.893Z,18.95
2018-11-12T18:07:53.347Z,21.82
2018-11-12T18:10:20.385Z,19.70
2018-11-12T18:12:48.012Z,23.47
2018-11-12T18:15:19.052Z,21.15
2018-11-12T18:17:49.541Z,22.13
2018-11-12T18:20:23.942Z,20.53
2018-11-12T18:22:52.453Z,21.33
2018-11-12T18:25:20.368Z,22.22
2018-11-12T18:27:47.908Z,19.00
2018-11-12T18:30:17.739Z,24.77
2018-11-12T18:32:48.779Z,23.12
2018-11-12T18:35:17.631Z,24.55
2018-11-12T18:37:45.374Z,23.42
2018-11-12T18:40:13.966Z,24.60
2018-11-12T18:42:41.601Z,31.12
2018-11-12T18:45:12.049Z,24.23
2018-11-12T18:47:40.237Z,19.42
2018-11-12T18:50:10.104Z,21.77
2018-11-12T18:52:38.944Z,21.42
2018-11-12T18:55:07.130Z,20.10
2018-11-12T18:57:34.680Z,20.75
2018-11-12T19:00:04.078Z,21.07
2018-11-12T19:02:31.942Z,24.37
2018-11-12T19:04:59.363Z,23.30
2018-11-12T19:07:26.760Z,21.15
2018-11-12T19:09:53.960Z,25.80
2018-11-12T19:12:21.801Z,22.27
2018-11-12T19:14:50.702Z,22.60
2018-11-12T19:17:18.200Z,24.60
2018-11-12T19:19:45.644Z,20.97
2018-11-12T19:22:13.216Z,23.95
2018-11-12T19:24:42.159Z,25.08
2018-11-12T19:27:09.960Z,25.40
2018-11-12T19:29:39.288Z,26.33
2018-11-12T19:32:07.161Z,24.85
2018-11-12T19:34:34.547Z,25.45
2018-11-12T19:37:02.032Z,26.20
2018-11-12T19:39:30.655Z,24.07
2018-11-12T19:41:58.603Z,25.43
2018-11-12T19:44:25.957Z,36.77
2018-11-12T19:46:53.509Z,25.57
2018-11-12T19:49:21.004Z,23.32
2018-11-12T19:51:49.394Z,25.57
2018-11-12T19:54:17.245Z,24.25
2018-11-12T19:56:44.858Z,26.27
2018-11-12T19:59:12.509Z,25.10
2018-11-12T20:01:39.898Z,27.30
2018-11-12T20:04:08.863Z,25.10
2018-11-12T20:06:39.667Z,24.60
2018-11-12T20:09:08.593Z,24.90
2018-11-12T20:11:35.758Z,23.98
2018-11-12T20:14:04.505Z,23.80
2018-11-12T20:16:32.036Z,25.40
2018-11-12T20:18:59.387Z,25.20
2018-11-12T20:21:27.118Z,28.80
2018-11-12T20:23:55.221Z,26.20
2018-11-12T20:26:22.532Z,28.95
2018-11-12T20:28:49.696Z,25.05
2018-11-12T20:31:19.020Z,26.97
2018-11-12T20:33:48.508Z,29.00
2018-11-12T20:36:16.588Z,24.50
2018-11-12T20:38:44.047Z,25.57
2018-11-12T20:41:11.149Z,28.05
2018-11-12T20:43:38.600Z,29.60
2018-11-12T20:46:05.761Z,25.10
2018-11-12T20:48:32.956Z,26.83
2018-11-12T20:51:00.394Z,25.23
2018-11-12T20:53:27.915Z,24.37
2018-11-12T20:55:55.297Z,28.23
2018-11-12T20:58:22.535Z,25.32
2018-11-12T21:00:50.341Z,30.43
2018-11-12T21:03:19.232Z,26.85
2018-11-12T21:05:46.854Z,26.87
2018-11-12T21:08:14.236Z,23.05
2018-11-12T21:10:41.408Z,24.10
2018-11-12T21:13:09.225Z,26.50
2018-11-12T21:15:36.572Z,25.97
2018-11-12T21:18:04.313Z,25.63
2018-11-12T21:20:31.559Z,23.17
2018-11-12T21:22:58.955Z,23.47
2018-11-12T21:25:26.957Z,24.87
2018-11-12T21:27:54.752Z,21.97
2018-11-12T21:30:24.198Z,21.77
2018-11-12T21:32:52.120Z,22.37
2018-11-12T21:35:19.648Z,21.50
2018-11-12T21:37:48.099Z,23.98
2018-11-12T21:40:18.448Z,22.57
2018-11-12T21:42:46.080Z,17.32
2018-11-12T21:45:14.984Z,19.50
2018-11-12T21:47:43.014Z,18.80
2018-11-12T21:50:13.035Z,18.10
2018-11-12T21:52:40.178Z,16.80
2018-11-12T21:57:45.834Z,20.25
2018-11-12T22:00:17.667Z,19.23
2018-11-12T22:02:46.904Z,18.35
2018-11-12T22:05:14.765Z,18.65
2018-11-12T22:07:42.829Z,15.30
2018-11-12T22:10:12.000Z,16.55
2018-11-12T22:12:39.938Z,15.08
2018-11-12T22:15:07.761Z,17.60
2018-11-12T22:17:35.302Z,16.00
2018-11-12T22:20:04.382Z,13.35
2018-11-12T22:22:32.327Z,13.72
2018-11-12T22:24:59.782Z,14.28
2018-11-12T22:27:27.450Z,16.27
2018-11-12T22:29:55.695Z,13.43
2018-11-12T22:32:23.034Z,13.90
2018-11-12T22:34:50.552Z,14.58
2018-11-12T22:37:17.854Z,15.70
2018-11-12T22:39:45.327Z,14.38
2018-11-12T22:42:12.882Z,16.33
2018-11-12T22:44:40.239Z,15.70
2018-11-12T22:47:07.834Z,12.63
2018-11-12T22:49:35.133Z,15.70
2018-11-12T22:52:02.803Z,18.48
2018-11-12T22:54:31.708Z,16.55
2018-11-12T22:56:59.230Z,16.55
2018-11-12T22:59:26.677Z,18.20
2018-11-12T23:01:54.064Z,14.28
2018-11-12T23:04:22.776Z,13.48
2018-11-12T23:06:52.022Z,13.40
2018-11-12T23:09:20.108Z,16.93
2018-11-12T23:11:51.627Z,12.15
2018-11-12T23:14:22.658Z,17.75
2018-11-12T23:16:51.944Z,15.13
2018-11-12T23:19:20.898Z,14.35
2018-11-12T23:21:49.645Z,16.95
2018-11-12T23:24:18.366Z,13.13
2018-11-12T23:26:46.051Z,12.70
2018-11-12T23:29:14.213Z,16.00
2018-11-12T23:31:43.756Z,15.63
2018-11-12T23:34:16.035Z,13.03
2018-11-12T23:36:45.947Z,17.82
2018-11-12T23:39:15.527Z,17.55
2018-11-12T23:41:44.623Z,16.15
2018-11-12T23:44:14.294Z,12.03
2018-11-12T23:46:46.558Z,16.05
2018-11-12T23:49:14.125Z,13.38
2018-11-12T23:51:42.880Z,12.80
2018-11-12T23:54:12.343Z,15.20
2018-11-12T23:56:40.742Z,14.97
2018-11-12T23:59:11.113Z,13.90
